sensor_id;sensor_type;location;lat;lon;timestamp;pressure;altitude;pressure_sealevel;temperature;humidity
61870;BME280;47810;42.264;23.826;2023-07-29T00:02:20;93664.25;;;19.44;47.39
61870;BME280;47810;42.264;23.826;2023-07-29T00:04:47;93668.38;;;19.39;47.50
61870;BME280;47810;42.264;23.826;2023-07-29T00:07:13;93667.66;;;19.28;47.61
61870;BME280;47810;42.264;23.826;2023-07-29T00:09:38;93678.75;;;19.34;49.51
61870;BME280;47810;42.264;23.826;2023-07-29T00:12:04;93668.66;;;19.53;47.89
61870;BME280;47810;42.264;23.826;2023-07-29T00:14:30;93666.78;;;19.46;47.95
61870;BME280;47810;42.264;23.826;2023-07-29T00:16:55;93670.50;;;19.27;47.85
61870;BME280;47810;42.264;23.826;2023-07-29T00:19:21;93668.28;;;19.22;49.73
61870;BME280;47810;42.264;23.826;2023-07-29T00:21:48;93663.94;;;19.21;48.91
61870;BME280;47810;42.264;23.826;2023-07-29T00:24:14;93668.03;;;19.34;48.68
61870;BME280;47810;42.264;23.826;2023-07-29T00:26:39;93675.38;;;19.31;49.25
61870;BME280;47810;42.264;23.826;2023-07-29T00:29:05;93665.59;;;19.22;48.29
61870;BME280;47810;42.264;23.826;2023-07-29T00:31:30;93668.28;;;19.22;48.33
61870;BME280;47810;42.264;23.826;2023-07-29T00:33:56;93673.59;;;19.14;49.29
61870;BME280;47810;42.264;23.826;2023-07-29T00:36:24;93669.81;;;18.99;49.04
61870;BME280;47810;42.264;23.826;2023-07-29T00:38:50;93675.41;;;18.88;50.00
61870;BME280;47810;42.264;23.826;2023-07-29T00:41:16;93671.13;;;18.95;49.51
61870;BME280;47810;42.264;23.826;2023-07-29T00:43:41;93671.38;;;19.09;50.35
61870;BME280;47810;42.264;23.826;2023-07-29T00:46:07;93666.22;;;19.16;50.59
61870;BME280;47810;42.264;23.826;2023-07-29T00:48:34;93671.25;;;18.93;49.48
61870;BME280;47810;42.264;23.826;2023-07-29T00:50:59;93672.00;;;19.03;50.32
61870;BME280;47810;42.264;23.826;2023-07-29T00:53:25;93673.88;;;18.85;50.03
61870;BME280;47810;42.264;23.826;2023-07-29T00:55:51;93674.09;;;18.56;50.22
61870;BME280;47810;42.264;23.826;2023-07-29T00:58:17;93674.31;;;18.62;50.94
61870;BME280;47810;42.264;23.826;2023-07-29T01:00:43;93666.13;;;18.64;51.07
61870;BME280;47810;42.264;23.826;2023-07-29T01:03:08;93661.63;;;18.65;51.48
61870;BME280;47810;42.264;23.826;2023-07-29T01:05:40;93668.66;;;18.66;51.02
61870;BME280;47810;42.264;23.826;2023-07-29T01:08:11;93665.25;;;18.73;49.69
61870;BME280;47810;42.264;23.826;2023-07-29T01:13:13;93657.50;;;18.70;50.03
61870;BME280;47810;42.264;23.826;2023-07-29T01:15:48;93662.53;;;18.55;50.32
61870;BME280;47810;42.264;23.826;2023-07-29T01:18:18;93666.06;;;18.56;49.83
61870;BME280;47810;42.264;23.826;2023-07-29T01:20:45;93657.59;;;18.43;50.15
61870;BME280;47810;42.264;23.826;2023-07-29T01:23:12;93662.22;;;18.58;49.66
61870;BME280;47810;42.264;23.826;2023-07-29T01:25:37;93663.25;;;18.39;49.96
61870;BME280;47810;42.264;23.826;2023-07-29T01:28:05;93656.66;;;18.52;51.74
61870;BME280;47810;42.264;23.826;2023-07-29T01:30:32;93659.41;;;18.60;50.75
61870;BME280;47810;42.264;23.826;2023-07-29T01:35:46;93661.09;;;18.61;50.74
61870;BME280;47810;42.264;23.826;2023-07-29T01:38:19;93664.38;;;18.55;50.76
61870;BME280;47810;42.264;23.826;2023-07-29T01:40:47;93662.31;;;18.67;50.86
61870;BME280;47810;42.264;23.826;2023-07-29T01:43:13;93661.47;;;18.48;50.60
61870;BME280;47810;42.264;23.826;2023-07-29T01:45:40;93658.19;;;18.36;50.92
61870;BME280;47810;42.264;23.826;2023-07-29T01:48:06;93662.69;;;18.54;50.39
61870;BME280;47810;42.264;23.826;2023-07-29T01:50:32;93664.38;;;18.55;50.40
61870;BME280;47810;42.264;23.826;2023-07-29T01:52:58;93664.53;;;18.35;50.42
61870;BME280;47810;42.264;23.826;2023-07-29T01:55:23;93661.59;;;18.11;50.72
61870;BME280;47810;42.264;23.826;2023-07-29T01:57:49;93663.47;;;18.01;51.38
61870;BME280;47810;42.264;23.826;2023-07-29T02:00:15;93662.06;;;17.79;51.98
61870;BME280;47810;42.264;23.826;2023-07-29T02:02:41;93659.66;;;17.85;52.07
61870;BME280;47810;42.264;23.826;2023-07-29T02:05:06;93665.59;;;17.79;52.12
61870;BME280;47810;42.264;23.826;2023-07-29T02:07:32;93663.00;;;17.87;51.79
61870;BME280;47810;42.264;23.826;2023-07-29T02:09:58;93660.91;;;18.09;51.20
61870;BME280;47810;42.264;23.826;2023-07-29T02:12:23;93662.28;;;18.13;52.05
61870;BME280;47810;42.264;23.826;2023-07-29T02:14:49;93660.22;;;18.07;52.25
61870;BME280;47810;42.264;23.826;2023-07-29T02:17:15;93659.84;;;18.02;51.36
61870;BME280;47810;42.264;23.826;2023-07-29T02:19:41;93656.88;;;17.77;51.63
61870;BME280;47810;42.264;23.826;2023-07-29T02:22:07;93658.00;;;17.65;51.97
61870;BME280;47810;42.264;23.826;2023-07-29T02:24:32;93659.34;;;17.88;52.01
61870;BME280;47810;42.264;23.826;2023-07-29T02:26:58;93659.34;;;17.88;51.50
61870;BME280;47810;42.264;23.826;2023-07-29T02:29:24;93661.63;;;17.83;54.68
61870;BME280;47810;42.264;23.826;2023-07-29T02:31:50;93664.16;;;17.85;54.72
61870;BME280;47810;42.264;23.826;2023-07-29T02:34:16;93667.41;;;17.79;54.70
61870;BME280;47810;42.264;23.826;2023-07-29T02:36:42;93666.44;;;17.70;55.19
61870;BME280;47810;42.264;23.826;2023-07-29T02:39:07;93670.41;;;17.66;55.63
61870;BME280;47810;42.264;23.826;2023-07-29T02:41:33;93665.63;;;17.60;55.43
61870;BME280;47810;42.264;23.826;2023-07-29T02:43:58;93665.44;;;17.71;55.08
61870;BME280;47810;42.264;23.826;2023-07-29T02:46:24;93667.84;;;17.64;55.15
61870;BME280;47810;42.264;23.826;2023-07-29T02:48:50;93671.59;;;17.44;55.75
61870;BME280;47810;42.264;23.826;2023-07-29T02:51:15;93669.66;;;17.36;56.17
61870;BME280;47810;42.264;23.826;2023-07-29T02:53:41;93683.13;;;17.44;55.71
61870;BME280;47810;42.264;23.826;2023-07-29T02:56:07;93679.19;;;17.39;55.47
61870;BME280;47810;42.264;23.826;2023-07-29T02:58:34;93678.69;;;17.16;56.39
61870;BME280;47810;42.264;23.826;2023-07-29T03:01:00;93673.63;;;17.22;56.05
61870;BME280;47810;42.264;23.826;2023-07-29T03:03:27;93679.56;;;17.07;55.78
61870;BME280;47810;42.264;23.826;2023-07-29T03:06:13;93685.59;;;17.09;57.13
61870;BME280;47810;42.264;23.826;2023-07-29T03:08:38;93682.25;;;16.87;57.20
61870;BME280;47810;42.264;23.826;2023-07-29T03:11:07;93677.91;;;16.96;57.54
61870;BME280;47810;42.264;23.826;2023-07-29T03:13:33;93684.38;;;16.84;58.06
61870;BME280;47810;42.264;23.826;2023-07-29T03:16:06;93684.53;;;16.92;58.00
61870;BME280;47810;42.264;23.826;2023-07-29T03:18:32;93689.16;;;16.90;57.05
61870;BME280;47810;42.264;23.826;2023-07-29T03:20:57;93683.78;;;16.70;57.96
61870;BME280;47810;42.264;23.826;2023-07-29T03:23:23;93681.56;;;16.85;57.01
61870;BME280;47810;42.264;23.826;2023-07-29T03:25:49;93681.00;;;16.82;57.89
61870;BME280;47810;42.264;23.826;2023-07-29T03:28:16;93685.22;;;16.84;57.93
61870;BME280;47810;42.264;23.826;2023-07-29T03:30:42;93688.84;;;16.93;58.44
61870;BME280;47810;42.264;23.826;2023-07-29T03:33:07;93681.56;;;16.75;59.22
61870;BME280;47810;42.264;23.826;2023-07-29T03:35:33;93685.47;;;16.91;58.66
61870;BME280;47810;42.264;23.826;2023-07-29T03:37:59;93683.81;;;16.80;59.60
61870;BME280;47810;42.264;23.826;2023-07-29T03:40:25;93685.19;;;16.94;59.38
61870;BME280;47810;42.264;23.826;2023-07-29T03:42:50;93680.72;;;16.85;58.94
61870;BME280;47810;42.264;23.826;2023-07-29T03:45:16;93684.53;;;16.92;59.25
61870;BME280;47810;42.264;23.826;2023-07-29T03:47:42;93681.56;;;16.75;61.12
61870;BME280;47810;42.264;23.826;2023-07-29T03:50:07;93693.94;;;16.76;60.12
61870;BME280;47810;42.264;23.826;2023-07-29T03:52:33;93688.59;;;16.76;60.32
61870;BME280;47810;42.264;23.826;2023-07-29T03:54:59;93690.81;;;16.71;61.12
61870;BME280;47810;42.264;23.826;2023-07-29T03:57:24;93694.78;;;16.77;60.67
61870;BME280;47810;42.264;23.826;2023-07-29T03:59:50;93695.75;;;16.86;60.35
61870;BME280;47810;42.264;23.826;2023-07-29T04:02:16;93695.47;;;16.98;60.26
61870;BME280;47810;42.264;23.826;2023-07-29T04:04:41;93695.19;;;16.82;60.67
61870;BME280;47810;42.264;23.826;2023-07-29T04:07:09;93699.09;;;16.78;61.49
61870;BME280;47810;42.264;23.826;2023-07-29T04:09:34;93703.88;;;16.84;60.99
61870;BME280;47810;42.264;23.826;2023-07-29T04:12:00;93698.69;;;17.02;60.05
61870;BME280;47810;42.264;23.826;2023-07-29T04:14:26;93701.47;;;17.00;61.47
61870;BME280;47810;42.264;23.826;2023-07-29T04:16:51;93691.22;;;17.06;61.45
61870;BME280;47810;42.264;23.826;2023-07-29T04:19:17;93698.69;;;17.02;59.70
61870;BME280;47810;42.264;23.826;2023-07-29T04:21:42;93694.72;;;17.16;57.88
61870;BME280;47810;42.264;23.826;2023-07-29T04:24:08;93698.47;;;17.23;60.19
61870;BME280;47810;42.264;23.826;2023-07-29T04:26:34;93693.00;;;17.25;61.33
61870;BME280;47810;42.264;23.826;2023-07-29T04:28:59;93694.66;;;17.35;59.92
61870;BME280;47810;42.264;23.826;2023-07-29T04:31:25;93688.31;;;17.36;59.89
61870;BME280;47810;42.264;23.826;2023-07-29T04:33:50;93693.78;;;17.44;61.67
61870;BME280;47810;42.264;23.826;2023-07-29T04:36:16;93698.00;;;17.47;59.64
61870;BME280;47810;42.264;23.826;2023-07-29T04:38:42;93700.78;;;17.55;57.65
61870;BME280;47810;42.264;23.826;2023-07-29T04:41:07;93701.91;;;17.62;59.36
61870;BME280;47810;42.264;23.826;2023-07-29T04:43:34;93698.59;;;17.68;57.54
61870;BME280;47810;42.264;23.826;2023-07-29T04:45:59;93702.97;;;17.69;60.70
61870;BME280;47810;42.264;23.826;2023-07-29T04:48:25;93709.16;;;17.70;58.91
61870;BME280;47810;42.264;23.826;2023-07-29T04:50:50;93707.47;;;17.79;59.12
61870;BME280;47810;42.264;23.826;2023-07-29T04:53:16;93712.47;;;17.91;59.64
61870;BME280;47810;42.264;23.826;2023-07-29T04:55:42;93716.59;;;18.04;57.37
61870;BME280;47810;42.264;23.826;2023-07-29T04:58:08;93718.84;;;18.08;58.41
61870;BME280;47810;42.264;23.826;2023-07-29T05:00:34;93720.63;;;18.18;59.11
61870;BME280;47810;42.264;23.826;2023-07-29T05:03:00;93728.34;;;18.21;57.76
61870;BME280;47810;42.264;23.826;2023-07-29T05:05:26;93732.53;;;18.23;59.21
61870;BME280;47810;42.264;23.826;2023-07-29T05:07:52;93734.25;;;18.24;60.20
61870;BME280;47810;42.264;23.826;2023-07-29T05:10:17;93741.25;;;18.25;58.25
61870;BME280;47810;42.264;23.826;2023-07-29T05:12:43;93733.94;;;18.27;60.50
61870;BME280;47810;42.264;23.826;2023-07-29T05:15:10;93731.34;;;18.35;58.28
61870;BME280;47810;42.264;23.826;2023-07-29T05:17:36;93732.91;;;18.56;58.69
61870;BME280;47810;42.264;23.826;2023-07-29T05:20:02;93732.13;;;18.46;56.77
61870;BME280;47810;42.264;23.826;2023-07-29T05:22:29;93733.22;;;18.53;57.99
61870;BME280;47810;42.264;23.826;2023-07-29T05:24:54;93735.66;;;18.64;57.92
61870;BME280;47810;42.264;23.826;2023-07-29T05:27:20;93726.78;;;18.91;57.48
61870;BME280;47810;42.264;23.826;2023-07-29T05:29:45;93737.41;;;19.01;57.58
61870;BME280;47810;42.264;23.826;2023-07-29T05:32:11;93730.25;;;19.09;56.70
61870;BME280;47810;42.264;23.826;2023-07-29T05:34:37;93738.88;;;19.21;55.96
61870;BME280;47810;42.264;23.826;2023-07-29T05:37:02;93735.72;;;19.26;55.92
61870;BME280;47810;42.264;23.826;2023-07-29T05:39:28;93737.25;;;19.28;55.42
61870;BME280;47810;42.264;23.826;2023-07-29T05:41:53;93736.28;;;19.29;55.77
61870;BME280;47810;42.264;23.826;2023-07-29T05:44:19;93735.00;;;19.42;58.57
61870;BME280;47810;42.264;23.826;2023-07-29T05:46:45;93744.75;;;19.43;56.89
61870;BME280;47810;42.264;23.826;2023-07-29T05:49:11;93743.53;;;19.63;58.07
61870;BME280;47810;42.264;23.826;2023-07-29T05:51:37;93739.66;;;19.84;55.77
61870;BME280;47810;42.264;23.826;2023-07-29T05:54:02;93739.56;;;19.67;56.43
61870;BME280;47810;42.264;23.826;2023-07-29T05:56:28;93737.50;;;19.61;56.17
61870;BME280;47810;42.264;23.826;2023-07-29T05:58:53;93742.19;;;19.59;55.51
61870;BME280;47810;42.264;23.826;2023-07-29T06:01:19;93745.84;;;19.58;55.17
61870;BME280;47810;42.264;23.826;2023-07-29T06:03:46;93741.28;;;19.68;55.79
61870;BME280;47810;42.264;23.826;2023-07-29T06:06:12;93736.75;;;19.69;55.47
61870;BME280;47810;42.264;23.826;2023-07-29T06:08:37;93739.97;;;19.81;54.43
61870;BME280;47810;42.264;23.826;2023-07-29T06:11:03;93747.75;;;19.92;54.98
61870;BME280;47810;42.264;23.826;2023-07-29T06:13:31;93743.75;;;19.96;54.88
61870;BME280;47810;42.264;23.826;2023-07-29T06:15:57;93740.28;;;20.04;53.56
61870;BME280;47810;42.264;23.826;2023-07-29T06:18:23;93735.66;;;20.14;53.28
61870;BME280;47810;42.264;23.826;2023-07-29T06:20:50;93739.69;;;20.18;53.01
61870;BME280;47810;42.264;23.826;2023-07-29T06:23:15;93740.03;;;20.23;51.40
61870;BME280;47810;42.264;23.826;2023-07-29T06:25:41;93743.25;;;20.35;52.08
61870;BME280;47810;42.264;23.826;2023-07-29T06:28:06;93739.22;;;20.31;47.84
61870;BME280;47810;42.264;23.826;2023-07-29T06:30:32;93740.25;;;20.38;50.03
61870;BME280;47810;42.264;23.826;2023-07-29T06:32:57;93738.63;;;20.45;51.12
61870;BME280;47810;42.264;23.826;2023-07-29T06:35:23;93738.53;;;20.63;49.55
61870;BME280;47810;42.264;23.826;2023-07-29T06:37:50;93739.06;;;20.75;48.27
61870;BME280;47810;42.264;23.826;2023-07-29T06:40:15;93737.22;;;20.83;49.55
61870;BME280;47810;42.264;23.826;2023-07-29T06:42:41;93738.75;;;21.02;48.98
61870;BME280;47810;42.264;23.826;2023-07-29T06:45:08;93736.06;;;21.18;47.31
61870;BME280;47810;42.264;23.826;2023-07-29T06:47:36;93736.44;;;21.15;47.66
61870;BME280;47810;42.264;23.826;2023-07-29T06:50:01;93728.38;;;21.40;46.69
61870;BME280;47810;42.264;23.826;2023-07-29T06:52:30;93726.72;;;21.39;46.92
61870;BME280;47810;42.264;23.826;2023-07-29T06:54:56;93731.72;;;21.50;46.75
61870;BME280;47810;42.264;23.826;2023-07-29T06:57:23;93737.41;;;21.72;46.93
61870;BME280;47810;42.264;23.826;2023-07-29T06:59:49;93728.66;;;21.86;46.30
61870;BME280;47810;42.264;23.826;2023-07-29T07:02:14;93737.00;;;22.07;48.70
61870;BME280;47810;42.264;23.826;2023-07-29T07:04:40;93729.94;;;22.23;47.02
61870;BME280;47810;42.264;23.826;2023-07-29T07:07:06;93729.84;;;22.39;46.93
61870;BME280;47810;42.264;23.826;2023-07-29T07:09:31;93726.06;;;22.56;45.85
61870;BME280;47810;42.264;23.826;2023-07-29T07:11:56;93722.16;;;22.67;43.37
61870;BME280;47810;42.264;23.826;2023-07-29T07:14:22;93714.44;;;22.95;45.16
61870;BME280;47810;42.264;23.826;2023-07-29T07:16:48;93710.50;;;23.06;43.24
61870;BME280;47810;42.264;23.826;2023-07-29T07:19:13;93713.63;;;23.18;44.04
61870;BME280;47810;42.264;23.826;2023-07-29T07:21:39;93711.78;;;23.33;42.67
61870;BME280;47810;42.264;23.826;2023-07-29T07:24:06;93707.13;;;23.65;42.56
61870;BME280;47810;42.264;23.826;2023-07-29T07:26:32;93701.69;;;23.73;43.17
61870;BME280;47810;42.264;23.826;2023-07-29T07:28:57;93695.66;;;23.86;43.85
61870;BME280;47810;42.264;23.826;2023-07-29T07:31:23;93700.69;;;24.04;44.05
61870;BME280;47810;42.264;23.826;2023-07-29T07:33:49;93695.31;;;24.18;41.78
61870;BME280;47810;42.264;23.826;2023-07-29T07:36:16;93690.53;;;24.35;43.14
61870;BME280;47810;42.264;23.826;2023-07-29T07:38:42;93695.00;;;24.58;43.43
61870;BME280;47810;42.264;23.826;2023-07-29T07:41:08;93696.84;;;24.72;41.38
61870;BME280;47810;42.264;23.826;2023-07-29T07:43:33;93700.31;;;24.87;40.14
61870;BME280;47810;42.264;23.826;2023-07-29T07:45:59;93690.13;;;25.04;42.20
61870;BME280;47810;42.264;23.826;2023-07-29T07:48:25;93692.38;;;25.22;40.99
61870;BME280;47810;42.264;23.826;2023-07-29T07:50:51;93692.84;;;25.26;40.09
61870;BME280;47810;42.264;23.826;2023-07-29T07:53:17;93692.63;;;25.49;41.14
61870;BME280;47810;42.264;23.826;2023-07-29T07:55:42;93697.38;;;25.68;38.73
61870;BME280;47810;42.264;23.826;2023-07-29T07:58:08;93691.31;;;25.88;39.10
61870;BME280;47810;42.264;23.826;2023-07-29T08:00:33;93696.22;;;26.06;38.62
61870;BME280;47810;42.264;23.826;2023-07-29T08:02:59;93694.03;;;26.29;38.50
61870;BME280;47810;42.264;23.826;2023-07-29T08:05:24;93705.25;;;26.54;37.81
61870;BME280;47810;42.264;23.826;2023-07-29T08:07:50;93705.28;;;26.61;38.92
61870;BME280;47810;42.264;23.826;2023-07-29T08:10:15;93704.34;;;26.88;38.42
61870;BME280;47810;42.264;23.826;2023-07-29T08:12:41;93703.63;;;27.14;38.64
61870;BME280;47810;42.264;23.826;2023-07-29T08:15:06;93698.19;;;27.14;37.45
61870;BME280;47810;42.264;23.826;2023-07-29T08:17:32;93693.84;;;27.27;37.68
61870;BME280;47810;42.264;23.826;2023-07-29T08:19:57;93695.75;;;27.46;38.36
61870;BME280;47810;42.264;23.826;2023-07-29T08:22:23;93693.88;;;27.67;35.91
61870;BME280;47810;42.264;23.826;2023-07-29T08:24:48;93689.31;;;27.87;38.44
61870;BME280;47810;42.264;23.826;2023-07-29T08:27:14;93687.84;;;28.04;34.56
61870;BME280;47810;42.264;23.826;2023-07-29T08:29:40;93687.00;;;28.10;34.22
61870;BME280;47810;42.264;23.826;2023-07-29T08:32:05;93679.44;;;28.26;36.21
61870;BME280;47810;42.264;23.826;2023-07-29T08:34:31;93681.50;;;28.44;33.59
61870;BME280;47810;42.264;23.826;2023-07-29T08:36:56;93675.22;;;28.37;34.13
61870;BME280;47810;42.264;23.826;2023-07-29T08:39:22;93676.34;;;27.49;34.55
61870;BME280;47810;42.264;23.826;2023-07-29T08:41:54;93670.94;;;28.09;36.07
61870;BME280;47810;42.264;23.826;2023-07-29T08:44:22;93670.66;;;28.24;33.44
61870;BME280;47810;42.264;23.826;2023-07-29T08:46:49;93673.31;;;28.50;34.57
61870;BME280;47810;42.264;23.826;2023-07-29T08:49:15;93673.03;;;28.72;33.72
61870;BME280;47810;42.264;23.826;2023-07-29T08:51:44;93678.78;;;28.95;33.95
61870;BME280;47810;42.264;23.826;2023-07-29T08:54:10;93669.91;;;29.20;32.54
61870;BME280;47810;42.264;23.826;2023-07-29T08:56:35;93668.06;;;29.45;35.84
61870;BME280;47810;42.264;23.826;2023-07-29T08:59:01;93673.78;;;28.99;37.51
61870;BME280;47810;42.264;23.826;2023-07-29T09:01:27;93673.00;;;29.55;32.38
61870;BME280;47810;42.264;23.826;2023-07-29T09:03:53;93657.97;;;30.03;30.44
61870;BME280;47810;42.264;23.826;2023-07-29T09:06:19;93670.00;;;30.38;30.28
61870;BME280;47810;42.264;23.826;2023-07-29T09:08:46;93659.56;;;30.54;32.08
61870;BME280;47810;42.264;23.826;2023-07-29T09:11:14;93661.06;;;30.68;31.20
61870;BME280;47810;42.264;23.826;2023-07-29T09:13:42;93663.03;;;30.61;29.98
61870;BME280;47810;42.264;23.826;2023-07-29T09:16:08;93661.22;;;30.73;31.15
61870;BME280;47810;42.264;23.826;2023-07-29T09:18:34;93664.38;;;31.07;30.87
61870;BME280;47810;42.264;23.826;2023-07-29T09:20:59;93671.50;;;31.38;30.67
61870;BME280;47810;42.264;23.826;2023-07-29T09:23:26;93667.91;;;31.56;29.71
61870;BME280;47810;42.264;23.826;2023-07-29T09:26:00;93670.50;;;31.51;28.03
61870;BME280;47810;42.264;23.826;2023-07-29T09:28:26;93667.53;;;31.64;29.51
61870;BME280;47810;42.264;23.826;2023-07-29T09:30:53;93664.59;;;31.77;27.97
61870;BME280;47810;42.264;23.826;2023-07-29T09:33:18;93657.44;;;31.53;27.27
61870;BME280;47810;42.264;23.826;2023-07-29T09:35:44;93654.69;;;31.11;29.13
61870;BME280;47810;42.264;23.826;2023-07-29T09:38:13;93651.41;;;31.32;36.27
61870;BME280;47810;42.264;23.826;2023-07-29T09:40:40;93647.00;;;31.50;28.94
61870;BME280;47810;42.264;23.826;2023-07-29T09:43:06;93646.81;;;31.33;29.39
61870;BME280;47810;42.264;23.826;2023-07-29T09:45:33;93634.47;;;32.19;31.64
61870;BME280;47810;42.264;23.826;2023-07-29T09:47:59;93641.22;;;32.64;29.30
61870;BME280;47810;42.264;23.826;2023-07-29T09:50:26;93646.13;;;33.14;28.91
61870;BME280;47810;42.264;23.826;2023-07-29T09:52:52;93645.66;;;33.34;27.40
61870;BME280;47810;42.264;23.826;2023-07-29T09:55:18;93651.81;;;33.41;25.77
61870;BME280;47810;42.264;23.826;2023-07-29T09:57:45;93646.75;;;33.04;27.51
61870;BME280;47810;42.264;23.826;2023-07-29T10:00:12;93646.59;;;33.11;29.62
61870;BME280;47810;42.264;23.826;2023-07-29T10:02:39;93643.41;;;33.59;27.69
61870;BME280;47810;42.264;23.826;2023-07-29T10:05:05;93634.81;;;33.84;26.23
61870;BME280;47810;42.264;23.826;2023-07-29T10:07:31;93639.25;;;33.74;26.25
61870;BME280;47810;42.264;23.826;2023-07-29T10:09:57;93631.16;;;34.13;26.07
61870;BME280;47810;42.264;23.826;2023-07-29T10:12:23;93632.00;;;34.13;25.80
61870;BME280;47810;42.264;23.826;2023-07-29T10:14:49;93635.75;;;34.46;25.26
61870;BME280;47810;42.264;23.826;2023-07-29T10:17:15;93637.13;;;34.26;26.61
61870;BME280;47810;42.264;23.826;2023-07-29T10:19:41;93627.63;;;33.83;24.63
61870;BME280;47810;42.264;23.826;2023-07-29T10:22:08;93627.72;;;34.39;24.88
61870;BME280;47810;42.264;23.826;2023-07-29T10:24:34;93626.19;;;34.48;24.66
61870;BME280;47810;42.264;23.826;2023-07-29T10:27:01;93621.44;;;34.61;24.69
61870;BME280;47810;42.264;23.826;2023-07-29T10:29:35;93613.50;;;34.42;24.33
61870;BME280;47810;42.264;23.826;2023-07-29T10:32:03;93616.34;;;34.30;26.20
61870;BME280;47810;42.264;23.826;2023-07-29T10:34:31;93613.59;;;34.69;27.44
61870;BME280;47810;42.264;23.826;2023-07-29T10:36:57;93612.78;;;35.13;25.21
61870;BME280;47810;42.264;23.826;2023-07-29T10:39:26;93600.38;;;34.88;24.02
61870;BME280;47810;42.264;23.826;2023-07-29T10:49:40;93585.47;;;35.28;24.18
61870;BME280;47810;42.264;23.826;2023-07-29T10:52:06;93576.47;;;35.06;23.63
61870;BME280;47810;42.264;23.826;2023-07-29T10:54:42;93581.69;;;35.34;24.57
61870;BME280;47810;42.264;23.826;2023-07-29T10:57:07;93582.09;;;35.75;23.62
61870;BME280;47810;42.264;23.826;2023-07-29T10:59:33;93574.28;;;35.94;22.62
61870;BME280;47810;42.264;23.826;2023-07-29T11:02:00;93575.03;;;35.84;23.66
61870;BME280;47810;42.264;23.826;2023-07-29T11:04:28;93571.81;;;35.60;21.93
61870;BME280;47810;42.264;23.826;2023-07-29T11:09:39;93580.66;;;35.40;23.39
61870;BME280;47810;42.264;23.826;2023-07-29T11:12:32;93566.94;;;34.91;22.63
61870;BME280;47810;42.264;23.826;2023-07-29T11:14:51;93563.81;;;34.83;26.22
61870;BME280;47810;42.264;23.826;2023-07-29T11:17:19;93566.97;;;35.45;24.21
61870;BME280;47810;42.264;23.826;2023-07-29T11:19:45;93554.63;;;35.75;26.05
61870;BME280;47810;42.264;23.826;2023-07-29T11:22:11;93554.88;;;36.06;24.52
61870;BME280;47810;42.264;23.826;2023-07-29T11:24:37;93559.09;;;35.86;22.65
61870;BME280;47810;42.264;23.826;2023-07-29T11:27:02;93559.03;;;35.17;22.47
61870;BME280;47810;42.264;23.826;2023-07-29T11:29:28;93563.50;;;34.79;25.33
61870;BME280;47810;42.264;23.826;2023-07-29T11:31:53;93557.13;;;34.51;23.91
61870;BME280;47810;42.264;23.826;2023-07-29T11:34:30;93553.69;;;34.39;24.13
61870;BME280;47810;42.264;23.826;2023-07-29T11:36:56;93557.66;;;34.48;23.97
61870;BME280;47810;42.264;23.826;2023-07-29T11:39:22;93551.84;;;33.89;24.73
61870;BME280;47810;42.264;23.826;2023-07-29T11:41:47;93550.47;;;33.70;30.35
61870;BME280;47810;42.264;23.826;2023-07-29T11:44:16;93548.16;;;32.99;27.14
61870;BME280;47810;42.264;23.826;2023-07-29T11:46:42;93547.44;;;33.21;29.53
61870;BME280;47810;42.264;23.826;2023-07-29T11:49:08;93543.63;;;33.22;30.25
61870;BME280;47810;42.264;23.826;2023-07-29T11:51:34;93543.28;;;33.35;26.81
61870;BME280;47810;42.264;23.826;2023-07-29T11:53:59;93536.84;;;33.58;26.12
61870;BME280;47810;42.264;23.826;2023-07-29T11:56:25;93533.69;;;33.32;26.79
61870;BME280;47810;42.264;23.826;2023-07-29T11:58:51;93541.97;;;33.37;26.61
61870;BME280;47810;42.264;23.826;2023-07-29T12:01:16;93541.59;;;33.46;25.83
61870;BME280;47810;42.264;23.826;2023-07-29T12:03:42;93534.19;;;33.80;27.19
61870;BME280;47810;42.264;23.826;2023-07-29T12:06:08;93535.94;;;34.25;24.38
61870;BME280;47810;42.264;23.826;2023-07-29T12:08:34;93531.19;;;34.59;24.46
61870;BME280;47810;42.264;23.826;2023-07-29T12:10:59;93521.31;;;34.80;24.72
61870;BME280;47810;42.264;23.826;2023-07-29T12:13:25;93531.50;;;34.63;23.85
61870;BME280;47810;42.264;23.826;2023-07-29T12:15:51;93518.28;;;34.54;28.07
61870;BME280;47810;42.264;23.826;2023-07-29T12:18:16;93518.28;;;34.82;24.02
61870;BME280;47810;42.264;23.826;2023-07-29T12:20:43;93520.75;;;34.83;24.67
61870;BME280;47810;42.264;23.826;2023-07-29T12:23:09;93523.25;;;34.58;23.28
61870;BME280;47810;42.264;23.826;2023-07-29T12:25:34;93525.34;;;34.12;24.64
61870;BME280;47810;42.264;23.826;2023-07-29T12:28:04;93519.06;;;33.94;24.53
61870;BME280;47810;42.264;23.826;2023-07-29T12:30:31;93519.81;;;33.90;24.29
61870;BME280;47810;42.264;23.826;2023-07-29T12:32:56;93520.31;;;34.25;24.64
61870;BME280;47810;42.264;23.826;2023-07-29T12:35:22;93512.81;;;34.60;25.50
61870;BME280;47810;42.264;23.826;2023-07-29T12:37:57;93518.19;;;34.71;23.91
61870;BME280;47810;42.264;23.826;2023-07-29T12:40:23;93504.00;;;34.80;23.86
61870;BME280;47810;42.264;23.826;2023-07-29T12:42:49;93510.44;;;34.90;23.57
61870;BME280;47810;42.264;23.826;2023-07-29T12:45:16;93512.06;;;34.91;23.76
61870;BME280;47810;42.264;23.826;2023-07-29T12:47:48;93510.34;;;34.80;25.48
61870;BME280;47810;42.264;23.826;2023-07-29T12:50:13;93511.97;;;34.81;23.84
61870;BME280;47810;42.264;23.826;2023-07-29T12:52:39;93507.78;;;34.51;23.47
61870;BME280;47810;42.264;23.826;2023-07-29T12:55:05;93516.31;;;34.33;24.46
61870;BME280;47810;42.264;23.826;2023-07-29T12:57:31;93513.81;;;34.31;27.27
61870;BME280;47810;42.264;23.826;2023-07-29T12:59:57;93508.16;;;34.38;23.29
61870;BME280;47810;42.264;23.826;2023-07-29T13:02:22;93511.59;;;34.06;23.90